VIV7429 MMTG-MMSM
Flight info
| Callsign | VIV7429 |
|---|---|
| Flight time | N/A |
| Altitude | 38000 |
| Route | XOMSO1 TGZ UA552 MTT UT112 LARLO DCT PBC PBC1S |
| Aircraft | A321/M-SDE3FGHIRWY/LB1 |
Departure
| Time | 2026-05-04 01:06 |
|---|---|
| Airport | Angel Albino Corzo International Airport (MMTG) |
Arrival
| Time | N/A |
|---|---|
| Airport | Felipe Ángeles International Airport (MMSM) |
| Time | Latitude | Longitude | Altitude | Speed | Heading |
|---|---|---|---|---|---|
| 2026-05-04 00:31 | 16.56023 | -93.02109 | 1514 ft | 0 kts | 79° |
| 2026-05-04 00:56 | 16.56021 | -93.02115 | 1514 ft | 3 kts | 79° |
| 2026-05-04 00:56 | 16.56018 | -93.02137 | 1510 ft | 3 kts | 79° |
| 2026-05-04 00:57 | 16.56014 | -93.02155 | 1513 ft | 3 kts | 86° |
| 2026-05-04 00:57 | 16.56015 | -93.02175 | 1513 ft | 3 kts | 113° |
| 2026-05-04 00:57 | 16.56025 | -93.02192 | 1511 ft | 1 kts | 139° |
| 2026-05-04 01:01 | 16.56025 | -93.02191 | 1511 ft | 1 kts | 139° |
| 2026-05-04 01:01 | 16.56011 | -93.02179 | 1513 ft | 4 kts | 139° |
| 2026-05-04 01:01 | 16.55980 | -93.02159 | 1514 ft | 7 kts | 154° |
| 2026-05-04 01:02 | 16.55969 | -93.02153 | 1514 ft | 0 kts | 154° |
| 2026-05-04 01:02 | 16.55946 | -93.02142 | 1514 ft | 6 kts | 155° |
| 2026-05-04 01:02 | 16.55902 | -93.02119 | 1514 ft | 8 kts | 168° |
| 2026-05-04 01:02 | 16.55856 | -93.02151 | 1514 ft | 9 kts | 228° |
| 2026-05-04 01:03 | 16.55797 | -93.02162 | 1514 ft | 10 kts | 160° |
| 2026-05-04 01:03 | 16.55732 | -93.02123 | 1514 ft | 12 kts | 149° |
| 2026-05-04 01:03 | 16.55653 | -93.02075 | 1514 ft | 14 kts | 150° |
| 2026-05-04 01:03 | 16.55563 | -93.02015 | 1512 ft | 16 kts | 149° |
| 2026-05-04 01:04 | 16.55461 | -93.01951 | 1513 ft | 18 kts | 148° |
| 2026-05-04 01:04 | 16.55369 | -93.01891 | 1514 ft | 10 kts | 148° |
| 2026-05-04 01:04 | 16.55298 | -93.01892 | 1512 ft | 11 kts | 213° |
| 2026-05-04 01:04 | 16.55255 | -93.01963 | 1512 ft | 12 kts | 237° |
| 2026-05-04 01:05 | 16.55239 | -93.01992 | 1514 ft | 4 kts | 246° |
| 2026-05-04 01:05 | 16.55252 | -93.02013 | 1515 ft | 4 kts | 314° |
| 2026-05-04 01:05 | 16.55261 | -93.02020 | 1515 ft | 0 kts | 326° |
| 2026-05-04 01:06 | 16.55314 | -93.02057 | 1515 ft | 41 kts | 327° |
| 2026-05-04 01:06 | 16.55799 | -93.02368 | 1514 ft | 118 kts | 328° |
| 2026-05-04 01:06 | 16.56651 | -93.02909 | 1705 ft | 159 kts | 325° |
| 2026-05-04 01:06 | 16.57643 | -93.03523 | 2166 ft | 174 kts | 327° |
| 2026-05-04 01:07 | 16.58729 | -93.04233 | 2376 ft | 195 kts | 325° |
| 2026-05-04 01:07 | 16.59946 | -93.05030 | 2553 ft | 220 kts | 327° |
| 2026-05-04 01:07 | 16.61323 | -93.05927 | 2906 ft | 245 kts | 328° |
| 2026-05-04 01:07 | 16.62814 | -93.06890 | 3463 ft | 256 kts | 328° |
| 2026-05-04 01:08 | 16.64349 | -93.07878 | 4278 ft | 262 kts | 329° |
| 2026-05-04 01:08 | 16.65917 | -93.08883 | 5135 ft | 265 kts | 329° |
| 2026-05-04 01:08 | 16.67509 | -93.09902 | 5951 ft | 271 kts | 331° |
| 2026-05-04 01:08 | 16.69131 | -93.10937 | 6772 ft | 276 kts | 331° |
| 2026-05-04 01:09 | 16.70782 | -93.11990 | 7550 ft | 280 kts | 330° |
| 2026-05-04 01:09 | 16.72437 | -93.13044 | 8339 ft | 284 kts | 330° |
| 2026-05-04 01:09 | 16.74140 | -93.14132 | 9131 ft | 289 kts | 329° |
| 2026-05-04 01:09 | 16.75864 | -93.15234 | 9910 ft | 294 kts | 329° |
| 2026-05-04 01:10 | 16.77605 | -93.16448 | 10331 ft | 312 kts | 318° |
| 2026-05-04 01:10 | 16.78851 | -93.18378 | 10547 ft | 337 kts | 290° |
| 2026-05-04 01:10 | 16.79223 | -93.20864 | 10864 ft | 354 kts | 275° |
| 2026-05-04 01:10 | 16.79516 | -93.23434 | 11456 ft | 359 kts | 283° |
| 2026-05-04 01:11 | 16.80377 | -93.25877 | 12110 ft | 361 kts | 301° |
| 2026-05-04 01:11 | 16.81917 | -93.27931 | 12806 ft | 361 kts | 316° |
| 2026-05-04 01:11 | 16.83728 | -93.29759 | 13550 ft | 362 kts | 317° |
| 2026-05-04 01:11 | 16.85553 | -93.31586 | 14230 ft | 364 kts | 317° |
| 2026-05-04 01:12 | 16.87386 | -93.33419 | 14880 ft | 367 kts | 317° |
| 2026-05-04 01:12 | 16.89232 | -93.35271 | 15506 ft | 370 kts | 317° |
| 2026-05-04 01:12 | 16.91090 | -93.37140 | 16110 ft | 373 kts | 317° |
| 2026-05-04 01:12 | 16.92969 | -93.39027 | 16752 ft | 376 kts | 317° |
| 2026-05-04 01:13 | 16.94836 | -93.40903 | 17356 ft | 379 kts | 317° |
| 2026-05-04 01:13 | 16.96772 | -93.42851 | 17954 ft | 383 kts | 317° |
| 2026-05-04 01:13 | 16.98675 | -93.44770 | 18509 ft | 387 kts | 317° |
| 2026-05-04 01:13 | 17.00620 | -93.46735 | 19021 ft | 391 kts | 317° |
| 2026-05-04 01:14 | 17.02583 | -93.48714 | 19536 ft | 394 kts | 317° |
| 2026-05-04 01:14 | 17.04566 | -93.50715 | 20083 ft | 398 kts | 317° |
| 2026-05-04 01:14 | 17.06566 | -93.52733 | 20633 ft | 401 kts | 317° |
| 2026-05-04 01:14 | 17.08580 | -93.54768 | 21151 ft | 404 kts | 317° |
| 2026-05-04 01:15 | 17.10612 | -93.56820 | 21663 ft | 408 kts | 317° |
| 2026-05-04 01:15 | 17.12661 | -93.58886 | 22168 ft | 411 kts | 317° |
| 2026-05-04 01:15 | 17.14727 | -93.60969 | 22657 ft | 414 kts | 317° |
| 2026-05-04 01:15 | 17.16808 | -93.63067 | 23147 ft | 417 kts | 317° |
| 2026-05-04 01:16 | 17.18903 | -93.65179 | 23610 ft | 420 kts | 317° |
| 2026-05-04 01:16 | 17.21011 | -93.67309 | 23991 ft | 422 kts | 317° |
| 2026-05-04 01:16 | 17.23126 | -93.69448 | 24399 ft | 424 kts | 316° |
| 2026-05-04 01:16 | 17.25254 | -93.71602 | 24781 ft | 427 kts | 316° |
| 2026-05-04 01:17 | 17.27394 | -93.73770 | 25156 ft | 430 kts | 316° |
| 2026-05-04 01:17 | 17.29549 | -93.75954 | 25534 ft | 432 kts | 316° |
| 2026-05-04 01:17 | 17.31718 | -93.78151 | 25910 ft | 435 kts | 316° |
| 2026-05-04 01:17 | 17.33868 | -93.80329 | 26282 ft | 437 kts | 316° |
| 2026-05-04 01:18 | 17.36062 | -93.82551 | 26661 ft | 439 kts | 316° |
| 2026-05-04 01:18 | 17.38264 | -93.84781 | 27024 ft | 442 kts | 316° |
| 2026-05-04 01:18 | 17.40481 | -93.87032 | 27382 ft | 445 kts | 316° |
| 2026-05-04 01:18 | 17.42707 | -93.89293 | 27740 ft | 447 kts | 316° |
| 2026-05-04 01:19 | 17.44948 | -93.91567 | 28097 ft | 449 kts | 316° |
| 2026-05-04 01:19 | 17.47200 | -93.93849 | 28448 ft | 452 kts | 316° |
| 2026-05-04 01:19 | 17.49461 | -93.96140 | 28782 ft | 454 kts | 316° |
| 2026-05-04 01:19 | 17.51740 | -93.98456 | 29125 ft | 456 kts | 315° |
| 2026-05-04 01:20 | 17.54023 | -94.00781 | 29478 ft | 459 kts | 315° |
| 2026-05-04 01:20 | 17.56284 | -94.03084 | 29828 ft | 461 kts | 315° |
| 2026-05-04 01:20 | 17.58597 | -94.05442 | 30138 ft | 463 kts | 315° |
| 2026-05-04 01:20 | 17.60914 | -94.07804 | 30443 ft | 464 kts | 315° |
| 2026-05-04 01:21 | 17.63228 | -94.10162 | 30850 ft | 463 kts | 315° |
| 2026-05-04 01:21 | 17.65539 | -94.12514 | 31245 ft | 462 kts | 315° |
| 2026-05-04 01:21 | 17.67849 | -94.14862 | 31634 ft | 462 kts | 315° |
| 2026-05-04 01:21 | 17.70152 | -94.17202 | 32035 ft | 461 kts | 315° |
| 2026-05-04 01:22 | 17.72455 | -94.19545 | 32438 ft | 460 kts | 315° |
| 2026-05-04 01:22 | 17.74756 | -94.21884 | 32848 ft | 460 kts | 315° |
| 2026-05-04 01:22 | 17.76271 | -94.23428 | 33118 ft | 459 kts | 315° |
| 2026-05-04 01:22 | 17.78558 | -94.25759 | 33542 ft | 458 kts | 315° |
| 2026-05-04 01:23 | 17.79332 | -94.26549 | 33666 ft | 458 kts | 315° |
| 2026-05-04 01:24 | 17.90506 | -94.37963 | 35556 ft | 454 kts | 314° |
| 2026-05-04 01:24 | 17.92766 | -94.40275 | 35949 ft | 453 kts | 314° |
| 2026-05-04 01:24 | 17.95015 | -94.42581 | 36322 ft | 452 kts | 314° |
| 2026-05-04 01:24 | 17.97261 | -94.44884 | 36711 ft | 451 kts | 314° |
| 2026-05-04 01:25 | 17.99502 | -94.47179 | 37077 ft | 450 kts | 313° |
| 2026-05-04 01:25 | 18.01737 | -94.49466 | 37434 ft | 449 kts | 313° |
| 2026-05-04 01:25 | 18.03971 | -94.51754 | 37762 ft | 448 kts | 313° |
| 2026-05-04 01:25 | 18.06205 | -94.54046 | 38017 ft | 448 kts | 311° |
| 2026-05-04 01:26 | 18.08216 | -94.56513 | 38070 ft | 443 kts | 302° |
| 2026-05-04 01:26 | 18.10863 | -94.62251 | 38058 ft | 435 kts | 283° |
| 2026-05-04 01:27 | 18.12016 | -94.68466 | 38065 ft | 433 kts | 278° |
| 2026-05-04 01:27 | 18.13066 | -94.74705 | 38049 ft | 433 kts | 278° |
| 2026-05-04 01:28 | 18.14125 | -94.80949 | 38051 ft | 433 kts | 278° |
| 2026-05-04 01:28 | 18.15175 | -94.87151 | 38055 ft | 434 kts | 278° |
| 2026-05-04 01:29 | 18.16234 | -94.93438 | 38050 ft | 434 kts | 278° |
| 2026-05-04 01:29 | 18.17276 | -94.99643 | 38063 ft | 434 kts | 278° |
| 2026-05-04 01:30 | 18.18319 | -95.05903 | 38056 ft | 435 kts | 278° |
| 2026-05-04 01:30 | 18.19365 | -95.12165 | 38064 ft | 435 kts | 278° |
| 2026-05-04 01:31 | 18.20416 | -95.18438 | 38064 ft | 435 kts | 278° |
| 2026-05-04 01:31 | 18.21458 | -95.24709 | 38064 ft | 435 kts | 278° |
| 2026-05-04 01:32 | 18.22500 | -95.30984 | 38072 ft | 436 kts | 278° |
| 2026-05-04 01:32 | 18.23543 | -95.37259 | 38067 ft | 436 kts | 278° |
| 2026-05-04 01:33 | 18.24575 | -95.43496 | 38071 ft | 436 kts | 278° |
| 2026-05-04 01:33 | 18.25614 | -95.49777 | 38068 ft | 436 kts | 278° |
| 2026-05-04 01:34 | 18.26647 | -95.56053 | 38065 ft | 436 kts | 278° |
| 2026-05-04 01:34 | 18.27678 | -95.62340 | 38064 ft | 436 kts | 278° |
| 2026-05-04 01:35 | 18.28708 | -95.68624 | 38065 ft | 436 kts | 278° |
| 2026-05-04 01:35 | 18.29742 | -95.74910 | 38064 ft | 436 kts | 278° |
| 2026-05-04 01:36 | 18.30774 | -95.81198 | 38062 ft | 436 kts | 278° |
| 2026-05-04 01:36 | 18.31791 | -95.87449 | 38060 ft | 437 kts | 278° |
| 2026-05-04 01:37 | 18.32650 | -95.92732 | 38062 ft | 437 kts | 278° |
| 2026-05-04 01:37 | 18.33676 | -95.99037 | 38060 ft | 437 kts | 278° |
| 2026-05-04 01:38 | 18.34861 | -96.06369 | 38058 ft | 437 kts | 278° |
| 2026-05-04 01:38 | 18.35711 | -96.11618 | 38058 ft | 437 kts | 278° |
| 2026-05-04 01:39 | 18.36733 | -96.17919 | 38059 ft | 437 kts | 278° |
| 2026-05-04 01:39 | 18.37745 | -96.24226 | 38056 ft | 436 kts | 278° |
| 2026-05-04 01:40 | 18.38500 | -96.28958 | 38023 ft | 436 kts | 278° |
| 2026-05-04 01:40 | 18.39502 | -96.35196 | 38021 ft | 435 kts | 278° |
| 2026-05-04 01:41 | 18.40509 | -96.41467 | 38013 ft | 434 kts | 278° |
| 2026-05-04 01:41 | 18.41510 | -96.47731 | 38009 ft | 434 kts | 278° |